Hlavní strana
METAR-TAF:

METAR-TAF

Letiště :

Key Lake, Saskatchewan, Kanada

zeměpisná šířka: 57-15N, zeměpisná délka: 105-37W, výška: 509 m

Aktuální stav počasí

Zpráva byla vytvořena před 31 minutami, v 06:00 UTC
Jihovýchodní vítr 10 kt s nárazy do 16 kt
Teplota -21°C
Vlhkost vzduchu 77%
Tlak 1018 hPa
Viditelnost: 14.5 km
Oblačno až skoro zataženo ve výšce 7000 ft
Oblačno až skoro zataženo ve výšce 8300 ft

METAR: CYKJ 210600Z AUTO 13010G16KT 9SM BKN070 BKN083 M21/M24 A3006 RMK ICG MISG SLP240

Čas: 00:31 (06:31 UTC)

Předpověď počasí

Zpráva byla vytvořena před 11 hodinami a 53 minutami, v 18:38 UTC
Předpověď platná od 20 v 19 UTC do 20 v 24 UTC
Východojihovýchodní vítr 8 kt
Viditelnost: 10 km
Oblačno až skoro zataženo ve výšce 18000 ft

TAF: CYKJ 201838Z 2019/2024 11008KT P6SM BKN180 RMK FCST BASED ON AUTO OBS. NXT FCST WILL BE ISSUED AT 210945Z

Stav a předpovědi počasí z více než 4 000 letišť (zprávy METAR a TAF).

Červené a žluté tečky na mapě představují dostupné meteorologické stanice.

Když kurzor umístíte na tečku, zobrazí se název stanice.

Pak kliknutím zobrazíte stav a předpověď počasí.

Chcete-li změnit mapu, kliknutím na zelené tlačítko se znaménkem +mapu přiblížíte, kliknutím na zelené tlačítko se znaménkem – mapu oddálíte a kliknutím na zelené šipky přejdete na sousední mapy.


METAR-TAF: